createdAt,value
2023-05-21T00:03:08.234Z,1008.818
2023-05-21T00:23:08.185Z,1008.655
2023-05-21T00:43:08.059Z,1008.437
2023-05-21T01:03:09.326Z,1008.346
2023-05-21T01:23:07.427Z,1008.179
2023-05-21T01:43:07.300Z,1008.167
2023-05-21T02:03:08.395Z,1008.126
2023-05-21T02:23:07.241Z,1007.993
2023-05-21T02:43:07.122Z,1007.829
2023-05-21T03:03:09.565Z,1007.716
2023-05-21T03:23:07.468Z,1007.752
2023-05-21T03:43:07.226Z,1007.692
2023-05-21T04:03:08.308Z,1007.702
2023-05-21T04:23:07.229Z,1007.891
2023-05-21T04:43:07.616Z,1008.044
2023-05-21T05:03:08.951Z,1007.943
2023-05-21T05:23:07.867Z,1007.738
2023-05-21T05:43:07.815Z,1007.634
2023-05-21T06:03:08.881Z,1007.609
2023-05-21T06:23:07.948Z,1007.528
2023-05-21T06:43:08.175Z,1007.466
2023-05-21T07:03:08.515Z,1007.601
2023-05-21T07:23:07.312Z,1007.621
2023-05-21T07:43:07.163Z,1007.537
2023-05-21T08:03:09.465Z,1007.524
2023-05-21T08:23:07.379Z,1007.536
2023-05-21T08:43:07.297Z,1007.481
2023-05-21T09:03:08.540Z,1007.515
2023-05-21T09:23:07.988Z,1007.485
2023-05-21T09:43:08.098Z,1007.326
2023-05-21T10:03:09.321Z,1007.176
2023-05-21T10:23:07.275Z,1006.978
2023-05-21T10:43:07.333Z,1006.72
2023-05-21T11:03:08.562Z,1006.634
2023-05-21T11:23:07.497Z,1006.477
2023-05-21T11:43:07.552Z,1006.326
2023-05-21T12:03:08.801Z,1006.25
2023-05-21T12:23:07.762Z,1006.103
2023-05-21T12:43:07.906Z,1006.15
2023-05-21T13:03:09.050Z,1006.172
2023-05-21T13:23:12.423Z,1006.084
2023-05-21T13:43:07.622Z,1006.033
2023-05-21T14:03:08.872Z,1005.927
2023-05-21T14:23:07.619Z,1005.695
2023-05-21T14:43:07.696Z,1005.647
2023-05-21T15:03:09.266Z,1005.617
2023-05-21T15:23:18.616Z,1005.514
2023-05-21T15:43:07.742Z,1005.221
2023-05-21T16:03:09.062Z,1005.112
2023-05-21T16:23:08.156Z,1005.154
2023-05-21T16:43:08.173Z,1005.161
2023-05-21T17:03:08.465Z,1005.159
2023-05-21T17:23:07.743Z,1004.963
2023-05-21T17:43:07.884Z,1005.026
2023-05-21T18:03:09.160Z,1004.843
2023-05-21T18:23:08.236Z,1004.885
2023-05-21T18:43:07.340Z,1005.05
2023-05-21T19:03:08.626Z,1005.354
2023-05-21T19:23:07.551Z,1005.692
2023-05-21T19:43:07.555Z,1005.739
2023-05-21T20:03:09.228Z,1006.109
2023-05-21T20:23:07.759Z,1005.986
2023-05-21T20:43:07.809Z,1005.718
2023-05-21T21:03:09.116Z,1005.442
2023-05-21T21:23:08.104Z,1005.49
2023-05-21T21:43:07.230Z,1005.546
2023-05-21T22:03:08.830Z,1005.775
2023-05-21T22:23:07.628Z,1005.479
2023-05-21T22:43:07.247Z,1005.545
2023-05-21T23:03:08.301Z,1005.377
2023-05-21T23:23:07.223Z,1005.146
2023-05-21T23:43:08.046Z,1005.173
